sensor_id;sensor_type;location;lat;lon;timestamp;pressure;altitude;pressure_sealevel;temperature;humidity
16595;BME280;8410;52.532;13.336;2023-05-12T00:00:27;101286.75;;;18.52;51.07
16595;BME280;8410;52.532;13.336;2023-05-12T00:02:55;101286.47;;;18.80;50.73
16595;BME280;8410;52.532;13.336;2023-05-12T00:05:23;101277.34;;;18.40;51.16
16595;BME280;8410;52.532;13.336;2023-05-12T00:07:50;101286.75;;;18.52;51.06
16595;BME280;8410;52.532;13.336;2023-05-12T00:10:18;101281.31;;;18.77;50.34
16595;BME280;8410;52.532;13.336;2023-05-12T00:12:46;101291.94;;;18.58;50.67
16595;BME280;8410;52.532;13.336;2023-05-12T00:15:15;101286.47;;;18.80;50.02
16595;BME280;8410;52.532;13.336;2023-05-12T00:17:44;101281.28;;;18.73;49.70
16595;BME280;8410;52.532;13.336;2023-05-12T00:20:12;101279.19;;;18.32;51.01
16595;BME280;8410;52.532;13.336;2023-05-12T00:22:40;101279.47;;;18.82;50.02
16595;BME280;8410;52.532;13.336;2023-05-12T00:25:08;101282.69;;;18.28;50.37
16595;BME280;8410;52.532;13.336;2023-05-12T00:27:35;101281.81;;;18.27;51.27
16595;BME280;8410;52.532;13.336;2023-05-12T00:30:03;101282.94;;;18.84;49.69
16595;BME280;8410;52.532;13.336;2023-05-12T00:32:33;101284.06;;;18.61;50.15
16595;BME280;8410;52.532;13.336;2023-05-12T00:35:00;101284.59;;;18.91;49.23
16595;BME280;8410;52.532;13.336;2023-05-12T00:37:28;101288.56;;;18.48;50.09
16595;BME280;8410;52.532;13.336;2023-05-12T00:39:55;101288.09;;;18.87;50.20
16595;BME280;8410;52.532;13.336;2023-05-12T00:42:23;101288.69;;;18.36;50.62
16595;BME280;8410;52.532;13.336;2023-05-12T00:44:50;101279.50;;;18.79;48.96
16595;BME280;8410;52.532;13.336;2023-05-12T00:47:17;101296.66;;;18.98;49.52
16595;BME280;8410;52.532;13.336;2023-05-12T00:49:48;101294.22;;;18.04;51.06
16595;BME280;8410;52.532;13.336;2023-05-12T00:52:15;101299.66;;;17.79;51.15
16595;BME280;8410;52.532;13.336;2023-05-12T00:54:43;101294.63;;;17.55;52.08
16595;BME280;8410;52.532;13.336;2023-05-12T00:57:11;101296.09;;;17.90;50.99
16595;BME280;8410;52.532;13.336;2023-05-12T00:59:39;101300.53;;;17.75;51.63
16595;BME280;8410;52.532;13.336;2023-05-12T01:02:06;101292.47;;;18.06;50.86
16595;BME280;8410;52.532;13.336;2023-05-12T01:04:34;101295.59;;;18.42;50.94
16595;BME280;8410;52.532;13.336;2023-05-12T01:07:05;101291.84;;;18.64;50.18
16595;BME280;8410;52.532;13.336;2023-05-12T01:09:36;101291.16;;;18.50;50.35
16595;BME280;8410;52.532;13.336;2023-05-12T01:12:04;101291.75;;;18.72;49.63
16595;BME280;8410;52.532;13.336;2023-05-12T01:14:31;101294.03;;;19.00;49.59
16595;BME280;8410;52.532;13.336;2023-05-12T01:17:02;101295.22;;;18.76;49.41
16595;BME280;8410;52.532;13.336;2023-05-12T01:19:39;101296.50;;;18.38;50.23
16595;BME280;8410;52.532;13.336;2023-05-12T01:22:08;101299.41;;;18.10;50.55
16595;BME280;8410;52.532;13.336;2023-05-12T01:24:41;101301.69;;;18.39;50.69
16595;BME280;8410;52.532;13.336;2023-05-12T01:27:13;101314.78;;;17.25;53.05
16595;BME280;8410;52.532;13.336;2023-05-12T01:29:42;101312.69;;;17.73;51.82
16595;BME280;8410;52.532;13.336;2023-05-12T01:32:11;101310.34;;;17.39;52.62
16595;BME280;8410;52.532;13.336;2023-05-12T01:34:39;101311.97;;;17.59;52.24
16595;BME280;8410;52.532;13.336;2023-05-12T01:37:07;101309.94;;;17.95;51.63
16595;BME280;8410;52.532;13.336;2023-05-12T01:39:35;101318.16;;;17.41;52.69
16595;BME280;8410;52.532;13.336;2023-05-12T01:42:03;101300.50;;;17.83;51.27
16595;BME280;8410;52.532;13.336;2023-05-12T01:44:32;101308.00;;;18.18;50.96
16595;BME280;8410;52.532;13.336;2023-05-12T01:46:59;101311.00;;;17.71;51.09
16595;BME280;8410;52.532;13.336;2023-05-12T01:49:27;101305.72;;;17.77;51.50
16595;BME280;8410;52.532;13.336;2023-05-12T01:51:55;101310.31;;;17.42;51.63
16595;BME280;8410;52.532;13.336;2023-05-12T01:54:22;101319.00;;;17.40;52.05
16595;BME280;8410;52.532;13.336;2023-05-12T01:56:50;101309.94;;;17.93;51.86
16595;BME280;8410;52.532;13.336;2023-05-12T01:59:17;101321.00;;;16.93;53.08
16595;BME280;8410;52.532;13.336;2023-05-12T02:01:46;101320.78;;;17.33;52.30
16595;BME280;8410;52.532;13.336;2023-05-12T02:04:13;101314.63;;;17.47;52.21
16595;BME280;8410;52.532;13.336;2023-05-12T02:06:41;101318.78;;;17.69;51.99
16595;BME280;8410;52.532;13.336;2023-05-12T02:09:09;101325.97;;;17.36;52.69
16595;BME280;8410;52.532;13.336;2023-05-12T02:11:36;101324.09;;;17.60;52.87
16595;BME280;8410;52.532;13.336;2023-05-12T02:14:03;101332.84;;;17.50;52.18
16595;BME280;8410;52.532;13.336;2023-05-12T02:16:31;101325.66;;;17.89;51.79
16595;BME280;8410;52.532;13.336;2023-05-12T02:19:00;101337.03;;;17.72;51.71
16595;BME280;8410;52.532;13.336;2023-05-12T02:21:28;101335.47;;;17.42;52.16
16595;BME280;8410;52.532;13.336;2023-05-12T02:23:56;101343.34;;;17.37;52.15
16595;BME280;8410;52.532;13.336;2023-05-12T02:26:24;101340.00;;;17.14;53.26
16595;BME280;8410;52.532;13.336;2023-05-12T02:28:51;101343.44;;;17.16;52.98
16595;BME280;8410;52.532;13.336;2023-05-12T02:31:18;101336.22;;;17.61;52.30
16595;BME280;8410;52.532;13.336;2023-05-12T02:33:46;101346.84;;;17.30;52.89
16595;BME280;8410;52.532;13.336;2023-05-12T02:36:15;101346.19;;;16.78;53.61
16595;BME280;8410;52.532;13.336;2023-05-12T02:38:42;101345.25;;;16.98;52.85
16595;BME280;8410;52.532;13.336;2023-05-12T02:41:09;101343.41;;;17.22;53.62
16595;BME280;8410;52.532;13.336;2023-05-12T02:43:37;101343.56;;;16.85;53.74
16595;BME280;8410;52.532;13.336;2023-05-12T02:46:05;101347.88;;;16.94;53.90
16595;BME280;8410;52.532;13.336;2023-05-12T02:48:32;101343.63;;;16.62;54.25
16595;BME280;8410;52.532;13.336;2023-05-12T02:50:59;101344.56;;;16.18;55.29
16595;BME280;8410;52.532;13.336;2023-05-12T02:53:28;101338.47;;;16.38;55.07
16595;BME280;8410;52.532;13.336;2023-05-12T02:55:56;101342.84;;;16.19;55.87
16595;BME280;8410;52.532;13.336;2023-05-12T02:58:23;101341.84;;;16.75;54.03
16595;BME280;8410;52.532;13.336;2023-05-12T03:00:51;101349.75;;;15.77;56.68
16595;BME280;8410;52.532;13.336;2023-05-12T03:03:34;101350.66;;;15.73;56.69
16595;BME280;8410;52.532;13.336;2023-05-12T03:06:03;101342.00;;;16.15;56.16
16595;BME280;8410;52.532;13.336;2023-05-12T03:08:32;101347.19;;;16.01;56.55
16595;BME280;8410;52.532;13.336;2023-05-12T03:11:00;101336.78;;;16.14;56.25
16595;BME280;8410;52.532;13.336;2023-05-12T03:13:27;101343.72;;;15.99;56.45
16595;BME280;8410;52.532;13.336;2023-05-12T03:15:55;101341.09;;;16.30;56.17
16595;BME280;8410;52.532;13.336;2023-05-12T03:18:26;101348.94;;;15.93;56.83
16595;BME280;8410;52.532;13.336;2023-05-12T03:20:54;101352.38;;;15.80;57.13
16595;BME280;8410;52.532;13.336;2023-05-12T03:23:21;101349.78;;;16.18;56.23
16595;BME280;8410;52.532;13.336;2023-05-12T03:25:50;101352.34;;;16.44;55.31
16595;BME280;8410;52.532;13.336;2023-05-12T03:28:18;101353.25;;;16.13;56.32
16595;BME280;8410;52.532;13.336;2023-05-12T03:30:45;101348.84;;;16.48;54.57
16595;BME280;8410;52.532;13.336;2023-05-12T03:33:12;101354.09;;;16.21;56.03
16595;BME280;8410;52.532;13.336;2023-05-12T03:35:40;101350.63;;;16.31;55.07
16595;BME280;8410;52.532;13.336;2023-05-12T03:38:07;101350.59;;;16.40;54.91
16595;BME280;8410;52.532;13.336;2023-05-12T03:40:35;101358.38;;;16.43;55.42
16595;BME280;8410;52.532;13.336;2023-05-12T03:43:03;101345.44;;;16.34;55.29
16595;BME280;8410;52.532;13.336;2023-05-12T03:45:31;101354.97;;;16.15;56.02
16595;BME280;8410;52.532;13.336;2023-05-12T03:47:58;101365.34;;;16.20;56.63
16595;BME280;8410;52.532;13.336;2023-05-12T03:50:26;101364.47;;;16.39;55.28
16595;BME280;8410;52.532;13.336;2023-05-12T03:52:54;101362.75;;;15.74;57.08
16595;BME280;8410;52.532;13.336;2023-05-12T03:55:22;101359.28;;;16.47;55.39
16595;BME280;8410;52.532;13.336;2023-05-12T03:57:49;101356.63;;;16.51;54.60
16595;BME280;8410;52.532;13.336;2023-05-12T04:00:19;101367.09;;;16.01;55.89
16595;BME280;8410;52.532;13.336;2023-05-12T04:02:46;101359.19;;;16.73;55.10
16595;BME280;8410;52.532;13.336;2023-05-12T04:05:14;101366.16;;;16.46;55.46
16595;BME280;8410;52.532;13.336;2023-05-12T04:07:42;101360.94;;;16.74;54.38
16595;BME280;8410;52.532;13.336;2023-05-12T04:10:09;101360.06;;;16.64;54.82
16595;BME280;8410;52.532;13.336;2023-05-12T04:12:37;101371.41;;;16.16;56.29
16595;BME280;8410;52.532;13.336;2023-05-12T04:15:05;101368.72;;;16.83;54.69
16595;BME280;8410;52.532;13.336;2023-05-12T04:17:34;101368.75;;;16.77;54.66
16595;BME280;8410;52.532;13.336;2023-05-12T04:20:02;101373.97;;;16.63;54.45
16595;BME280;8410;52.532;13.336;2023-05-12T04:22:29;101371.31;;;16.83;54.86
16595;BME280;8410;52.532;13.336;2023-05-12T04:24:57;101376.56;;;16.77;54.12
16595;BME280;8410;52.532;13.336;2023-05-12T04:27:24;101376.53;;;16.74;55.33
16595;BME280;8410;52.532;13.336;2023-05-12T04:29:52;101373.00;;;17.00;54.62
16595;BME280;8410;52.532;13.336;2023-05-12T04:32:19;101373.13;;;16.50;55.74
16595;BME280;8410;52.532;13.336;2023-05-12T04:34:48;101371.31;;;16.92;54.31
16595;BME280;8410;52.532;13.336;2023-05-12T04:37:16;101372.16;;;16.96;55.03
16595;BME280;8410;52.532;13.336;2023-05-12T04:39:44;101371.28;;;16.98;53.42
16595;BME280;8410;52.532;13.336;2023-05-12T04:42:11;101378.31;;;16.38;54.74
16595;BME280;8410;52.532;13.336;2023-05-12T04:44:39;101389.59;;;16.29;56.58
16595;BME280;8410;52.532;13.336;2023-05-12T04:47:06;101379.97;;;16.88;53.80
16595;BME280;8410;52.532;13.336;2023-05-12T04:49:34;101396.53;;;16.32;55.37
16595;BME280;8410;52.532;13.336;2023-05-12T04:52:03;101388.63;;;16.89;55.30
16595;BME280;8410;52.532;13.336;2023-05-12T04:54:31;101385.25;;;16.45;55.46
16595;BME280;8410;52.532;13.336;2023-05-12T04:56:58;101392.19;;;16.52;54.86
16595;BME280;8410;52.532;13.336;2023-05-12T04:59:25;101398.19;;;16.76;54.67
16595;BME280;8410;52.532;13.336;2023-05-12T05:01:53;101397.38;;;15.94;56.71
16595;BME280;8410;52.532;13.336;2023-05-12T05:04:21;101401.72;;;16.24;56.55
16595;BME280;8410;52.532;13.336;2023-05-12T05:06:49;101400.81;;;16.61;55.15
16595;BME280;8410;52.532;13.336;2023-05-12T05:09:17;101413.81;;;15.87;56.73
16595;BME280;8410;52.532;13.336;2023-05-12T05:11:45;101406.00;;;16.82;55.45
16595;BME280;8410;52.532;13.336;2023-05-12T05:14:13;101400.75;;;16.94;55.58
16595;BME280;8410;52.532;13.336;2023-05-12T05:16:41;101407.72;;;16.89;54.38
16595;BME280;8410;52.532;13.336;2023-05-12T05:19:08;101403.25;;;17.24;54.21
16595;BME280;8410;52.532;13.336;2023-05-12T05:21:50;101412.59;;;17.63;53.98
16595;BME280;8410;52.532;13.336;2023-05-12T05:24:20;101419.56;;;17.55;52.62
16595;BME280;8410;52.532;13.336;2023-05-12T05:26:47;101414.22;;;17.85;52.83
16595;BME280;8410;52.532;13.336;2023-05-12T05:29:15;101417.69;;;17.84;51.83
16595;BME280;8410;52.532;13.336;2023-05-12T05:31:42;101406.53;;;17.58;52.41
16595;BME280;8410;52.532;13.336;2023-05-12T05:34:10;101410.63;;;18.00;51.72
16595;BME280;8410;52.532;13.336;2023-05-12T05:36:38;101403.31;;;19.89;48.59
16595;BME280;8410;52.532;13.336;2023-05-12T05:39:05;101405.94;;;20.40;46.84
16595;BME280;8410;52.532;13.336;2023-05-12T05:41:36;101409.69;;;19.00;49.34
16595;BME280;8410;52.532;13.336;2023-05-12T05:44:04;101420.09;;;18.09;50.17
16595;BME280;8410;52.532;13.336;2023-05-12T05:46:31;101407.22;;;19.57;48.10
16595;BME280;8410;52.532;13.336;2023-05-12T05:48:59;101412.88;;;20.41;46.99
16595;BME280;8410;52.532;13.336;2023-05-12T05:51:26;101417.56;;;19.65;47.77
16595;BME280;8410;52.532;13.336;2023-05-12T05:53:54;101415.94;;;19.56;47.46
16595;BME280;8410;52.532;13.336;2023-05-12T05:56:21;101416.78;;;19.58;48.23
16595;BME280;8410;52.532;13.336;2023-05-12T05:58:50;101405.03;;;23.67;42.35
16595;BME280;8410;52.532;13.336;2023-05-12T06:01:18;101380.88;;;25.99;38.46
16595;BME280;8410;52.532;13.336;2023-05-12T06:03:46;101399.81;;;23.93;39.73
16595;BME280;8410;52.532;13.336;2023-05-12T06:06:13;101393.47;;;24.01;40.31
16595;BME280;8410;52.532;13.336;2023-05-12T06:08:41;101405.78;;;23.98;40.14
16595;BME280;8410;52.532;13.336;2023-05-12T06:11:08;101400.22;;;23.81;40.39
16595;BME280;8410;52.532;13.336;2023-05-12T06:13:36;101405.44;;;22.28;42.37
16595;BME280;8410;52.532;13.336;2023-05-12T06:16:05;101423.81;;;20.14;45.62
16595;BME280;8410;52.532;13.336;2023-05-12T06:18:32;101424.03;;;19.38;47.73
16595;BME280;8410;52.532;13.336;2023-05-12T06:21:03;101435.91;;;18.91;49.42
16595;BME280;8410;52.532;13.336;2023-05-12T06:23:31;101430.63;;;19.65;48.70
16595;BME280;8410;52.532;13.336;2023-05-12T06:25:58;101437.13;;;18.53;49.81
16595;BME280;8410;52.532;13.336;2023-05-12T06:28:26;101440.91;;;19.09;48.77
16595;BME280;8410;52.532;13.336;2023-05-12T06:30:53;101433.84;;;19.17;49.55
16595;BME280;8410;52.532;13.336;2023-05-12T06:33:22;101438.91;;;19.30;48.61
16595;BME280;8410;52.532;13.336;2023-05-12T06:35:49;101434.03;;;19.73;49.46
16595;BME280;8410;52.532;13.336;2023-05-12T06:38:17;101443.94;;;19.45;49.03
16595;BME280;8410;52.532;13.336;2023-05-12T06:40:44;101438.16;;;20.42;47.51
16595;BME280;8410;52.532;13.336;2023-05-12T06:43:12;101438.03;;;19.97;48.07
16595;BME280;8410;52.532;13.336;2023-05-12T06:45:40;101440.75;;;19.23;49.49
16595;BME280;8410;52.532;13.336;2023-05-12T06:48:07;101448.13;;;18.86;49.37
16595;BME280;8410;52.532;13.336;2023-05-12T06:50:36;101440.97;;;19.06;49.19
16595;BME280;8410;52.532;13.336;2023-05-12T06:53:04;101441.69;;;19.16;49.66
16595;BME280;8410;52.532;13.336;2023-05-12T06:55:33;101437.16;;;19.97;47.98
16595;BME280;8410;52.532;13.336;2023-05-12T06:58:01;101437.44;;;19.09;49.19
16595;BME280;8410;52.532;13.336;2023-05-12T07:00:28;101437.34;;;19.16;48.40
16595;BME280;8410;52.532;13.336;2023-05-12T07:02:56;101440.38;;;19.51;48.87
16595;BME280;8410;52.532;13.336;2023-05-12T07:05:23;101435.38;;;19.34;48.12
16595;BME280;8410;52.532;13.336;2023-05-12T07:07:52;101444.47;;;19.02;49.12
16595;BME280;8410;52.532;13.336;2023-05-12T07:10:19;101439.13;;;19.14;49.52
16595;BME280;8410;52.532;13.336;2023-05-12T07:12:47;101435.69;;;19.79;48.37
16595;BME280;8410;52.532;13.336;2023-05-12T07:15:14;101447.19;;;18.91;48.83
16595;BME280;8410;52.532;13.336;2023-05-12T07:17:42;101436.28;;;19.96;48.29
16595;BME280;8410;52.532;13.336;2023-05-12T07:20:10;101439.22;;;19.75;47.60
16595;BME280;8410;52.532;13.336;2023-05-12T07:22:38;101449.13;;;20.12;47.33
16595;BME280;8410;52.532;13.336;2023-05-12T07:25:07;101443.72;;;19.62;47.74
16595;BME280;8410;52.532;13.336;2023-05-12T07:27:35;101441.66;;;19.87;48.34
16595;BME280;8410;52.532;13.336;2023-05-12T07:30:03;101452.72;;;19.41;48.74
16595;BME280;8410;52.532;13.336;2023-05-12T07:32:31;101449.00;;;19.57;48.54
16595;BME280;8410;52.532;13.336;2023-05-12T07:34:58;101449.44;;;20.44;46.76
16595;BME280;8410;52.532;13.336;2023-05-12T07:37:26;101439.88;;;20.43;46.51
16595;BME280;8410;52.532;13.336;2023-05-12T07:39:53;101453.97;;;19.79;47.02
16595;BME280;8410;52.532;13.336;2023-05-12T07:42:22;101440.69;;;20.95;46.21
16595;BME280;8410;52.532;13.336;2023-05-12T07:44:50;101442.56;;;20.40;46.57
16595;BME280;8410;52.532;13.336;2023-05-12T07:47:17;101436.41;;;20.43;46.58
16595;BME280;8410;52.532;13.336;2023-05-12T07:49:44;101444.97;;;20.51;46.70
16595;BME280;8410;52.532;13.336;2023-05-12T07:52:12;101436.63;;;20.80;46.28
16595;BME280;8410;52.532;13.336;2023-05-12T07:54:40;101440.00;;;20.37;46.88
16595;BME280;8410;52.532;13.336;2023-05-12T07:57:07;101451.06;;;20.52;45.88
16595;BME280;8410;52.532;13.336;2023-05-12T07:59:36;101447.44;;;20.62;46.14
16595;BME280;8410;52.532;13.336;2023-05-12T08:02:03;101458.66;;;20.13;46.49
16595;BME280;8410;52.532;13.336;2023-05-12T08:04:31;101440.81;;;20.39;47.05
16595;BME280;8410;52.532;13.336;2023-05-12T08:06:59;101447.41;;;20.09;45.45
16595;BME280;8410;52.532;13.336;2023-05-12T08:09:26;101454.28;;;20.15;45.33
16595;BME280;8410;52.532;13.336;2023-05-12T08:11:54;101451.66;;;20.15;45.45
16595;BME280;8410;52.532;13.336;2023-05-12T08:14:21;101440.97;;;20.81;44.68
16595;BME280;8410;52.532;13.336;2023-05-12T08:16:52;101438.63;;;20.66;43.58
16595;BME280;8410;52.532;13.336;2023-05-12T08:19:19;101438.69;;;21.09;43.48
16595;BME280;8410;52.532;13.336;2023-05-12T08:21:47;101436.88;;;21.55;43.42
16595;BME280;8410;52.532;13.336;2023-05-12T08:24:14;101437.25;;;21.36;42.63
16595;BME280;8410;52.532;13.336;2023-05-12T08:26:42;101437.53;;;21.23;42.43
16595;BME280;8410;52.532;13.336;2023-05-12T08:29:10;101435.06;;;21.15;43.18
16595;BME280;8410;52.532;13.336;2023-05-12T08:31:37;101428.03;;;22.34;42.08
16595;BME280;8410;52.532;13.336;2023-05-12T08:34:07;101443.34;;;21.37;42.01
16595;BME280;8410;52.532;13.336;2023-05-12T08:36:36;101433.53;;;21.05;42.30
16595;BME280;8410;52.532;13.336;2023-05-12T08:39:04;101435.50;;;21.39;42.05
16595;BME280;8410;52.532;13.336;2023-05-12T08:41:41;101446.66;;;21.86;41.11
16595;BME280;8410;52.532;13.336;2023-05-12T08:44:09;101435.22;;;21.51;40.17
16595;BME280;8410;52.532;13.336;2023-05-12T08:46:37;101438.53;;;21.98;39.93
16595;BME280;8410;52.532;13.336;2023-05-12T08:49:08;101437.25;;;21.77;39.31
16595;BME280;8410;52.532;13.336;2023-05-12T08:51:42;101439.97;;;21.72;40.50
16595;BME280;8410;52.532;13.336;2023-05-12T08:54:16;101441.88;;;21.24;40.04
16595;BME280;8410;52.532;13.336;2023-05-12T08:56:45;101446.59;;;21.89;39.51
16595;BME280;8410;52.532;13.336;2023-05-12T08:59:16;101439.59;;;21.50;38.68
16595;BME280;8410;52.532;13.336;2023-05-12T09:01:44;101435.81;;;21.62;39.26
16595;BME280;8410;52.532;13.336;2023-05-12T09:04:14;101435.78;;;21.65;38.18
16595;BME280;8410;52.532;13.336;2023-05-12T09:06:42;101445.09;;;21.38;37.83
16595;BME280;8410;52.532;13.336;2023-05-12T09:09:12;101444.16;;;21.41;37.88
16595;BME280;8410;52.532;13.336;2023-05-12T09:11:41;101441.34;;;21.50;38.18
16595;BME280;8410;52.532;13.336;2023-05-12T09:14:14;101437.03;;;21.86;38.03
16595;BME280;8410;52.532;13.336;2023-05-12T09:16:46;101438.09;;;21.77;37.14
16595;BME280;8410;52.532;13.336;2023-05-12T09:19:19;101425.34;;;22.01;36.44
16595;BME280;8410;52.532;13.336;2023-05-12T09:21:47;101433.03;;;21.70;36.30
16595;BME280;8410;52.532;13.336;2023-05-12T09:24:14;101418.22;;;22.06;36.87
16595;BME280;8410;52.532;13.336;2023-05-12T09:26:46;101432.72;;;21.84;36.87
16595;BME280;8410;52.532;13.336;2023-05-12T09:29:15;101430.97;;;21.45;36.53
16595;BME280;8410;52.532;13.336;2023-05-12T09:31:56;101438.91;;;21.41;36.88
16595;BME280;8410;52.532;13.336;2023-05-12T09:34:28;101440.38;;;21.12;36.91
16595;BME280;8410;52.532;13.336;2023-05-12T09:36:58;101437.69;;;20.72;37.62
16595;BME280;8410;52.532;13.336;2023-05-12T09:39:26;101431.22;;;20.89;38.54
16595;BME280;8410;52.532;13.336;2023-05-12T09:41:54;101426.03;;;20.86;37.41
16595;BME280;8410;52.532;13.336;2023-05-12T09:44:23;101420.34;;;21.51;37.14
16595;BME280;8410;52.532;13.336;2023-05-12T09:46:51;101424.72;;;21.52;37.65
16595;BME280;8410;52.532;13.336;2023-05-12T09:49:19;101432.47;;;21.15;36.99
16595;BME280;8410;52.532;13.336;2023-05-12T09:51:52;101424.41;;;21.24;37.57
16595;BME280;8410;52.532;13.336;2023-05-12T09:54:23;101427.78;;;21.29;36.53
16595;BME280;8410;52.532;13.336;2023-05-12T09:56:51;101431.81;;;21.46;36.60
16595;BME280;8410;52.532;13.336;2023-05-12T09:59:24;101437.19;;;21.80;37.00
16595;BME280;8410;52.532;13.336;2023-05-12T10:01:55;101431.75;;;21.88;36.46
16595;BME280;8410;52.532;13.336;2023-05-12T10:04:26;101429.78;;;21.60;36.41
16595;BME280;8410;52.532;13.336;2023-05-12T10:06:57;101425.16;;;22.07;35.86
16595;BME280;8410;52.532;13.336;2023-05-12T10:09:30;101432.00;;;21.36;34.00
16595;BME280;8410;52.532;13.336;2023-05-12T10:12:00;101421.34;;;21.46;35.46
16595;BME280;8410;52.532;13.336;2023-05-12T10:14:30;101403.13;;;22.50;35.36
16595;BME280;8410;52.532;13.336;2023-05-12T10:16:58;101420.75;;;22.45;35.70
16595;BME280;8410;52.532;13.336;2023-05-12T10:19:27;101417.78;;;22.24;36.47
16595;BME280;8410;52.532;13.336;2023-05-12T10:21:57;101410.63;;;21.95;36.33
16595;BME280;8410;52.532;13.336;2023-05-12T10:24:25;101391.09;;;22.43;36.26
16595;BME280;8410;52.532;13.336;2023-05-12T10:26:53;101408.84;;;21.96;35.94
16595;BME280;8410;52.532;13.336;2023-05-12T10:29:22;101411.19;;;22.08;35.30
16595;BME280;8410;52.532;13.336;2023-05-12T10:31:55;101393.09;;;22.33;35.84
16595;BME280;8410;52.532;13.336;2023-05-12T10:34:28;101412.06;;;22.43;35.77
16595;BME280;8410;52.532;13.336;2023-05-12T10:36:57;101407.16;;;21.93;36.58
16595;BME280;8410;52.532;13.336;2023-05-12T10:39:28;101412.13;;;21.68;36.66
16595;BME280;8410;52.532;13.336;2023-05-12T10:42:04;101402.78;;;21.94;36.45
16595;BME280;8410;52.532;13.336;2023-05-12T10:44:32;101402.56;;;22.03;36.36
16595;BME280;8410;52.532;13.336;2023-05-12T10:47:00;101400.53;;;22.14;36.81
16595;BME280;8410;52.532;13.336;2023-05-12T10:49:32;101413.16;;;21.19;37.35
16595;BME280;8410;52.532;13.336;2023-05-12T10:52:01;101411.53;;;21.55;37.32
16595;BME280;8410;52.532;13.336;2023-05-12T10:54:28;101407.25;;;21.89;37.04
16595;BME280;8410;52.532;13.336;2023-05-12T10:56:59;101417.38;;;21.68;37.96
16595;BME280;8410;52.532;13.336;2023-05-12T10:59:27;101389.09;;;22.17;36.89
16595;BME280;8410;52.532;13.336;2023-05-12T11:01:57;101398.72;;;22.51;36.27
16595;BME280;8410;52.532;13.336;2023-05-12T11:04:38;101400.72;;;22.75;36.79
16595;BME280;8410;52.532;13.336;2023-05-12T11:07:09;101392.44;;;21.88;37.07
16595;BME280;8410;52.532;13.336;2023-05-12T11:09:41;101390.84;;;21.80;37.13
16595;BME280;8410;52.532;13.336;2023-05-12T11:12:24;101399.66;;;21.78;37.43
16595;BME280;8410;52.532;13.336;2023-05-12T11:14:52;101401.34;;;22.16;37.71
16595;BME280;8410;52.532;13.336;2023-05-12T11:17:20;101394.38;;;22.51;37.51
16595;BME280;8410;52.532;13.336;2023-05-12T11:19:48;101386.78;;;22.72;37.33
16595;BME280;8410;52.532;13.336;2023-05-12T11:22:18;101396.34;;;22.43;37.04
16595;BME280;8410;52.532;13.336;2023-05-12T11:24:47;101375.50;;;22.37;37.32
16595;BME280;8410;52.532;13.336;2023-05-12T11:27:18;101377.56;;;23.21;37.36
16595;BME280;8410;52.532;13.336;2023-05-12T11:29:55;101395.41;;;22.77;36.62
16595;BME280;8410;52.532;13.336;2023-05-12T11:32:23;101400.19;;;22.30;37.41
16595;BME280;8410;52.532;13.336;2023-05-12T11:34:50;101386.63;;;23.09;36.62
16595;BME280;8410;52.532;13.336;2023-05-12T11:37:19;101393.06;;;22.99;36.20
16595;BME280;8410;52.532;13.336;2023-05-12T11:39:47;101383.59;;;22.60;36.50
16595;BME280;8410;52.532;13.336;2023-05-12T11:42:14;101389.31;;;22.43;36.46
16595;BME280;8410;52.532;13.336;2023-05-12T11:44:46;101390.59;;;22.61;36.56
16595;BME280;8410;52.532;13.336;2023-05-12T11:47:15;101396.75;;;21.90;36.48
16595;BME280;8410;52.532;13.336;2023-05-12T11:49:46;101401.88;;;21.95;36.49
16595;BME280;8410;52.532;13.336;2023-05-12T11:52:15;101408.84;;;22.32;36.11
16595;BME280;8410;52.532;13.336;2023-05-12T11:54:48;101403.97;;;22.16;37.36
16595;BME280;8410;52.532;13.336;2023-05-12T11:57:24;101398.66;;;22.85;36.89
16595;BME280;8410;52.532;13.336;2023-05-12T11:59:56;101387.22;;;23.19;36.27
16595;BME280;8410;52.532;13.336;2023-05-12T12:02:24;101403.88;;;23.47;35.38
16595;BME280;8410;52.532;13.336;2023-05-12T12:04:53;101396.78;;;22.59;36.68
16595;BME280;8410;52.532;13.336;2023-05-12T12:07:27;101404.56;;;21.92;36.98
16595;BME280;8410;52.532;13.336;2023-05-12T12:09:56;101404.44;;;21.98;36.85
16595;BME280;8410;52.532;13.336;2023-05-12T12:12:24;101415.03;;;21.92;37.15
16595;BME280;8410;52.532;13.336;2023-05-12T12:14:52;101411.91;;;21.77;37.80
16595;BME280;8410;52.532;13.336;2023-05-12T12:17:21;101396.06;;;22.19;37.78
16595;BME280;8410;52.532;13.336;2023-05-12T12:19:56;101397.25;;;22.06;37.94
16595;BME280;8410;52.532;13.336;2023-05-12T12:22:23;101409.09;;;22.22;37.48
16595;BME280;8410;52.532;13.336;2023-05-12T12:24:51;101414.31;;;21.87;37.35
16595;BME280;8410;52.532;13.336;2023-05-12T12:27:20;101408.69;;;22.02;37.70
16595;BME280;8410;52.532;13.336;2023-05-12T12:29:47;101393.09;;;22.32;37.99
16595;BME280;8410;52.532;13.336;2023-05-12T12:32:16;101393.22;;;23.24;37.62
16595;BME280;8410;52.532;13.336;2023-05-12T12:34:43;101388.09;;;23.19;36.89
16595;BME280;8410;52.532;13.336;2023-05-12T12:37:11;101391.22;;;22.37;36.26
16595;BME280;8410;52.532;13.336;2023-05-12T12:39:39;101402.34;;;22.46;37.26
16595;BME280;8410;52.532;13.336;2023-05-12T12:42:06;101388.97;;;22.88;36.42
16595;BME280;8410;52.532;13.336;2023-05-12T12:44:35;101392.53;;;22.53;35.16
16595;BME280;8410;52.532;13.336;2023-05-12T12:47:03;101397.09;;;22.46;35.82
16595;BME280;8410;52.532;13.336;2023-05-12T12:49:31;101393.34;;;23.19;35.72
16595;BME280;8410;52.532;13.336;2023-05-12T12:51:59;101384.31;;;23.28;35.58
16595;BME280;8410;52.532;13.336;2023-05-12T12:54:27;101376.78;;;23.45;35.91
16595;BME280;8410;52.532;13.336;2023-05-12T12:56:54;101387.81;;;23.28;35.68